This is the latest recevied weather packets stored in our database for station/object SP4MAZ-13. If no packets are shown the sender has not sent any weather packets the latest 10 day(s).
| Time | Temp. | Humidity | Pressure | Rain* | Wind** | Luminosity | Snow |
|---|---|---|---|---|---|---|---|
| 1777371326 | 5° C | 74% | 2147.4 hPa | - | - | - | - |
| 1777371023 | 5° C | 71% | 2147.4 hPa | - | - | - | - |
| 1777370720 | 6.11° C | 61% | 2147.4 hPa | - | - | - | - |
| 1777370416 | 5.56° C | 59% | 2147.4 hPa | - | - | - | - |
| 1777370115 | 5° C | 62% | 2147.4 hPa | - | - | - | - |
| 1777369812 | 4.44° C | 67% | 2147.4 hPa | - | - | - | - |
| 1777369508 | 4.44° C | 64% | 2147.4 hPa | - | - | - | - |
| 1777369205 | 6.67° C | 55% | 2147.4 hPa | - | - | - | - |
| 1777368903 | 7.78° C | 48% | 2147.4 hPa | - | - | - | - |
| 1777368602 | 6.67° C | 53% | 2147.4 hPa | - | - | - | - |
| 1777368298 | 6.11° C | 55% | 2147.4 hPa | - | - | - | - |
| 1777367995 | 5.56° C | 59% | 2147.4 hPa | - | - | - | - |
| 1777367692 | 5.56° C | 61% | 2147.4 hPa | - | - | - | - |
| 1777367388 | 5.56° C | 63% | 2147.4 hPa | - | - | - | - |
| 1777367084 | 6.11° C | 60% | 2147.4 hPa | - | - | - | - |
| 1777366781 | 6.11° C | 55% | 2147.4 hPa | - | - | - | - |
| 1777366477 | 6.67° C | 45% | 2147.4 hPa | - | - | - | - |
| 1777366173 | 7.78° C | 49% | 2147.4 hPa | - | - | - | - |
| 1777365870 | 7.78° C | 46% | 2147.4 hPa | - | - | - | - |
| 1777365567 | 7.78° C | 48% | 2147.4 hPa | - | - | - | - |
| 1777365263 | 7.22° C | 45% | 2147.4 hPa | - | - | - | - |
| 1777364960 | 6.67° C | 49% | 2147.4 hPa | - | - | - | - |
| 1777364656 | 6.67° C | 47% | 2147.4 hPa | - | - | - | - |
| 1777364353 | 7.22° C | 47% | 2147.4 hPa | - | - | - | - |
| 1777364050 | 7.22° C | 47% | 2147.4 hPa | - | - | - | - |
* Rain since midnight (hover to see other rain measurements)
** Current wind speed in m/s (hover to see current wind gust speed)